createdAt,value
2019-05-15T00:00:38.460Z,7.90
2019-05-15T00:03:08.599Z,7.80
2019-05-15T00:05:39.071Z,7.90
2019-05-15T00:08:09.195Z,7.90
2019-05-15T00:10:39.010Z,7.80
2019-05-15T00:13:09.193Z,7.80
2019-05-15T00:15:40.148Z,7.70
2019-05-15T00:18:08.955Z,7.60
2019-05-15T00:20:39.393Z,7.60
2019-05-15T00:23:08.553Z,7.60
2019-05-15T00:25:39.330Z,7.50
2019-05-15T00:28:09.369Z,7.50
2019-05-15T00:30:38.859Z,7.40
2019-05-15T00:33:08.939Z,7.40
2019-05-15T00:35:39.406Z,7.40
2019-05-15T00:38:09.316Z,7.40
2019-05-15T00:40:39.109Z,7.40
2019-05-15T00:43:08.830Z,7.20
2019-05-15T00:45:38.597Z,7.10
2019-05-15T00:48:08.817Z,7.10
2019-05-15T00:50:39.393Z,7.00
2019-05-15T00:53:08.673Z,6.90
2019-05-15T00:55:38.866Z,6.60
2019-05-15T00:58:08.750Z,6.50
2019-05-15T01:00:42.689Z,6.40
2019-05-15T01:03:12.408Z,6.40
2019-05-15T01:05:41.094Z,6.40
2019-05-15T01:08:09.972Z,6.40
2019-05-15T01:10:38.806Z,6.50
2019-05-15T01:13:08.404Z,6.50
2019-05-15T01:15:38.688Z,6.50
2019-05-15T01:18:09.391Z,6.50
2019-05-15T01:20:39.323Z,6.40
2019-05-15T01:23:08.917Z,6.50
2019-05-15T01:25:39.058Z,6.50
2019-05-15T01:28:09.479Z,6.50
2019-05-15T01:30:39.642Z,6.40
2019-05-15T01:33:08.729Z,6.50
2019-05-15T01:35:38.320Z,6.50
2019-05-15T01:38:08.079Z,6.50
2019-05-15T01:40:38.470Z,6.40
2019-05-15T01:43:09.162Z,6.40
2019-05-15T01:45:39.359Z,6.30
2019-05-15T01:48:08.245Z,6.40
2019-05-15T01:50:38.697Z,6.40
2019-05-15T01:53:08.295Z,6.40
2019-05-15T01:55:39.502Z,6.40
2019-05-15T01:58:09.235Z,6.40
2019-05-15T02:00:39.252Z,6.50
2019-05-15T02:03:09.821Z,6.40
2019-05-15T02:05:39.185Z,6.40
2019-05-15T02:08:08.527Z,6.50
2019-05-15T02:10:39.055Z,6.60
2019-05-15T02:13:08.523Z,6.50
2019-05-15T02:15:39.530Z,6.50
2019-05-15T02:18:08.542Z,6.50
2019-05-15T02:20:39.032Z,6.40
2019-05-15T02:23:11.792Z,6.50
2019-05-15T02:25:38.804Z,6.50
2019-05-15T02:28:09.327Z,6.50
2019-05-15T02:30:40.197Z,6.50
2019-05-15T02:33:10.754Z,6.40
2019-05-15T02:35:39.495Z,6.40
2019-05-15T02:38:10.074Z,6.50
2019-05-15T02:40:40.446Z,6.50
2019-05-15T02:43:10.206Z,6.50
2019-05-15T02:45:41.823Z,6.50
2019-05-15T02:48:09.451Z,6.50
2019-05-15T02:50:39.035Z,6.50
2019-05-15T02:53:09.841Z,6.60
2019-05-15T02:55:40.324Z,6.60
2019-05-15T02:58:10.001Z,6.60
2019-05-15T03:00:47.671Z,6.80
2019-05-15T03:03:09.853Z,6.80
2019-05-15T03:05:40.883Z,6.90
2019-05-15T03:08:09.671Z,7.00
2019-05-15T03:10:40.470Z,7.10
2019-05-15T03:13:09.996Z,7.10
2019-05-15T03:15:40.134Z,7.10
2019-05-15T03:18:09.802Z,7.00
2019-05-15T03:20:39.229Z,7.10
2019-05-15T03:23:09.800Z,7.00
2019-05-15T03:25:40.279Z,7.00
2019-05-15T03:28:10.468Z,7.00
2019-05-15T03:31:07.267Z,7.00
2019-05-15T03:33:17.389Z,7.00
2019-05-15T03:35:42.873Z,7.10
2019-05-15T03:38:10.512Z,7.10
2019-05-15T03:40:39.911Z,7.20
2019-05-15T03:43:09.246Z,7.30
2019-05-15T03:45:40.477Z,7.30
2019-05-15T03:48:09.327Z,7.30
2019-05-15T03:50:40.250Z,7.40
2019-05-15T03:53:10.354Z,7.40
2019-05-15T03:55:40.430Z,7.50
2019-05-15T03:58:10.072Z,7.50
2019-05-15T04:00:39.778Z,7.40
2019-05-15T04:03:10.661Z,7.40
2019-05-15T04:05:39.343Z,7.40
2019-05-15T04:08:11.080Z,7.40
2019-05-15T04:10:39.839Z,7.50
2019-05-15T04:13:09.685Z,7.40
2019-05-15T04:15:39.495Z,7.40
2019-05-15T04:18:09.358Z,7.60
2019-05-15T04:20:40.315Z,7.90
2019-05-15T04:23:10.297Z,8.00
2019-05-15T04:25:39.486Z,7.90
2019-05-15T04:28:13.327Z,7.70
2019-05-15T04:30:41.911Z,7.80
2019-05-15T04:33:10.597Z,7.90
2019-05-15T04:35:40.654Z,8.20
2019-05-15T04:38:09.559Z,8.20
2019-05-15T04:40:39.620Z,8.20
2019-05-15T04:43:10.538Z,8.10
2019-05-15T04:45:39.686Z,8.30
2019-05-15T04:48:10.213Z,8.40
2019-05-15T04:50:39.941Z,8.50
2019-05-15T04:53:10.763Z,8.50
2019-05-15T04:55:40.671Z,8.50
2019-05-15T04:58:10.305Z,8.50
2019-05-15T05:00:53.299Z,8.40
2019-05-15T05:03:21.917Z,8.50
2019-05-15T05:05:50.820Z,8.40
2019-05-15T05:08:20.355Z,8.40
2019-05-15T05:10:49.402Z,8.40
2019-05-15T05:13:19.919Z,8.40
2019-05-15T05:15:49.902Z,8.40
2019-05-15T05:18:19.533Z,8.40
2019-05-15T05:20:48.683Z,8.40
2019-05-15T05:23:19.317Z,8.50
2019-05-15T05:25:49.124Z,8.60
2019-05-15T05:28:18.338Z,8.70
2019-05-15T05:30:48.171Z,8.80
2019-05-15T05:33:18.194Z,8.90
2019-05-15T05:35:48.521Z,8.90
2019-05-15T05:38:19.290Z,9.00
2019-05-15T05:40:49.593Z,9.00
2019-05-15T05:43:19.186Z,9.10
2019-05-15T05:45:49.258Z,9.20
2019-05-15T05:48:19.123Z,9.50
2019-05-15T05:50:49.636Z,9.50
2019-05-15T05:53:20.836Z,9.60
2019-05-15T05:55:49.968Z,9.80
2019-05-15T05:58:19.570Z,9.90
2019-05-15T06:00:49.414Z,10.10
2019-05-15T06:03:19.714Z,10.10
2019-05-15T06:05:49.542Z,10.10
2019-05-15T06:08:19.836Z,10.10
2019-05-15T06:10:49.616Z,10.10
2019-05-15T06:13:19.162Z,10.10
2019-05-15T06:15:48.794Z,10.10
2019-05-15T06:18:20.876Z,10.30
2019-05-15T06:20:50.038Z,10.40
2019-05-15T06:23:23.825Z,10.50
2019-05-15T06:25:49.758Z,10.70
2019-05-15T06:28:19.846Z,10.90
2019-05-15T06:30:48.972Z,10.90
2019-05-15T06:33:18.804Z,10.90
2019-05-15T06:35:49.431Z,11.00
2019-05-15T06:38:19.443Z,11.00
2019-05-15T06:40:50.315Z,11.10
2019-05-15T06:43:19.694Z,11.20
2019-05-15T06:45:49.203Z,11.30
2019-05-15T06:48:20.085Z,11.40
2019-05-15T06:50:49.527Z,11.50
2019-05-15T06:53:19.133Z,11.60
2019-05-15T06:55:51.163Z,11.80
2019-05-15T06:58:20.107Z,12.00
2019-05-15T07:00:49.426Z,12.00
2019-05-15T07:03:25.431Z,12.10
2019-05-15T07:05:50.618Z,12.40
2019-05-15T07:08:19.760Z,12.80
2019-05-15T07:10:50.806Z,13.10
2019-05-15T07:13:19.399Z,12.90
2019-05-15T07:15:49.535Z,12.70
2019-05-15T07:18:19.831Z,13.00
2019-05-15T07:20:49.293Z,13.30
2019-05-15T07:23:18.992Z,13.70
2019-05-15T07:25:49.923Z,13.80
2019-05-15T07:28:18.453Z,14.30
2019-05-15T07:30:49.460Z,14.60
2019-05-15T07:33:27.930Z,14.70
2019-05-15T07:35:49.270Z,14.20
2019-05-15T07:38:19.001Z,14.60
2019-05-15T07:40:55.674Z,14.60
2019-05-15T07:43:18.445Z,14.70
2019-05-15T07:45:53.807Z,14.70
2019-05-15T07:48:18.902Z,14.40
2019-05-15T07:50:49.706Z,13.80
2019-05-15T07:53:19.750Z,13.60
2019-05-15T07:55:50.303Z,13.50
2019-05-15T07:58:21.109Z,13.60
2019-05-15T08:00:49.687Z,13.80
2019-05-15T08:03:18.593Z,14.00
2019-05-15T08:05:58.701Z,14.10
2019-05-15T08:08:18.462Z,14.50
2019-05-15T08:10:50.298Z,14.80
2019-05-15T08:13:19.051Z,15.10
2019-05-15T08:15:48.683Z,15.20
2019-05-15T08:18:18.423Z,15.30
2019-05-15T08:20:50.247Z,15.70
2019-05-15T08:23:19.601Z,15.90
2019-05-15T08:25:48.661Z,16.00
2019-05-15T08:28:19.003Z,16.30
2019-05-15T08:30:49.479Z,16.60
2019-05-15T08:33:19.736Z,16.30
2019-05-15T08:35:51.620Z,16.10
2019-05-15T08:38:18.809Z,15.80
2019-05-15T08:40:49.015Z,15.50
2019-05-15T08:43:18.696Z,15.50
2019-05-15T08:45:49.455Z,15.50
2019-05-15T08:48:18.530Z,15.40
2019-05-15T08:50:48.707Z,15.30
2019-05-15T08:53:19.630Z,15.60
2019-05-15T08:55:49.080Z,15.20
2019-05-15T08:58:20.051Z,15.10
2019-05-15T09:00:52.311Z,15.40
2019-05-15T09:03:20.670Z,15.40
2019-05-15T09:05:49.243Z,16.00
2019-05-15T09:08:19.206Z,16.50
2019-05-15T09:10:50.321Z,17.20
2019-05-15T09:13:19.161Z,17.40
2019-05-15T09:15:48.769Z,17.40
2019-05-15T09:18:20.166Z,16.70
2019-05-15T09:20:49.087Z,16.50
2019-05-15T09:23:19.223Z,16.70
2019-05-15T09:25:49.316Z,16.70
2019-05-15T09:28:19.314Z,17.20
2019-05-15T09:30:48.601Z,17.70
2019-05-15T09:33:19.559Z,17.50
2019-05-15T09:35:49.031Z,17.40
2019-05-15T09:38:18.400Z,17.50
2019-05-15T09:40:51.218Z,17.30
2019-05-15T09:43:19.300Z,17.40
2019-05-15T09:45:49.287Z,17.50
2019-05-15T09:48:19.626Z,17.10
2019-05-15T09:50:49.255Z,16.50
2019-05-15T09:53:22.150Z,16.50
2019-05-15T09:55:50.891Z,16.20
2019-05-15T09:58:20.978Z,15.80
2019-05-15T10:00:52.964Z,15.90
2019-05-15T10:03:21.659Z,16.10
2019-05-15T10:06:09.643Z,16.40
2019-05-15T10:08:39.723Z,16.70
2019-05-15T10:11:13.093Z,17.10
2019-05-15T10:13:41.982Z,16.80
2019-05-15T10:16:10.664Z,16.50
2019-05-15T10:18:39.498Z,16.80
2019-05-15T10:21:08.958Z,17.20
2019-05-15T10:23:40.868Z,17.30
2019-05-15T10:26:13.524Z,17.30
2019-05-15T10:28:40.336Z,17.50
2019-05-15T10:31:09.537Z,17.90
2019-05-15T10:33:39.274Z,18.00
2019-05-15T10:36:08.564Z,18.00
2019-05-15T10:38:39.191Z,18.20
2019-05-15T10:41:14.006Z,18.10
2019-05-15T10:43:44.561Z,18.40
2019-05-15T10:46:13.143Z,18.60
2019-05-15T10:48:38.918Z,18.60
2019-05-15T10:51:10.357Z,18.20
2019-05-15T10:53:39.611Z,18.00
2019-05-15T10:56:08.915Z,17.90
2019-05-15T10:58:39.267Z,18.10
2019-05-15T11:01:13.577Z,17.50
2019-05-15T11:03:45.055Z,16.90
2019-05-15T11:06:13.845Z,17.70
2019-05-15T11:08:42.580Z,19.00
2019-05-15T11:11:11.267Z,20.30
2019-05-15T11:13:39.822Z,20.50
2019-05-15T11:16:08.526Z,20.40
2019-05-15T11:18:39.443Z,20.40
2019-05-15T11:21:08.429Z,20.90
2019-05-15T11:23:42.169Z,20.70
2019-05-15T11:26:08.808Z,19.90
2019-05-15T11:28:39.062Z,19.80
2019-05-15T11:31:10.374Z,20.10
2019-05-15T11:33:38.653Z,20.00
2019-05-15T11:36:07.334Z,19.70
2019-05-15T11:38:37.997Z,19.00
2019-05-15T11:41:08.448Z,19.20
2019-05-15T11:43:38.601Z,19.60
2019-05-15T11:46:09.686Z,19.60
2019-05-15T11:48:39.185Z,19.90
2019-05-15T11:51:09.525Z,19.30
2019-05-15T11:53:40.116Z,20.10
2019-05-15T11:56:09.536Z,19.60
2019-05-15T11:58:38.972Z,19.90
2019-05-15T12:01:08.629Z,19.70
2019-05-15T12:03:38.506Z,19.50
2019-05-15T12:06:15.857Z,19.40
2019-05-15T12:08:38.579Z,19.10
2019-05-15T12:11:11.925Z,19.20
2019-05-15T12:13:38.217Z,18.80
2019-05-15T12:16:07.052Z,18.90
2019-05-15T12:18:35.619Z,19.30
2019-05-15T12:21:04.332Z,19.60
2019-05-15T12:23:32.954Z,20.30
2019-05-15T12:26:01.676Z,20.70
2019-05-15T12:28:30.265Z,21.70
2019-05-15T12:30:59.845Z,21.80
2019-05-15T12:33:32.817Z,21.70
2019-05-15T12:36:01.529Z,20.70
2019-05-15T12:38:30.080Z,21.50
2019-05-15T13:01:14.621Z,23.40
2019-05-15T13:03:34.777Z,23.30
2019-05-15T13:06:03.413Z,23.20
2019-05-15T13:08:32.038Z,23.00
2019-05-15T13:11:00.591Z,21.70
2019-05-15T13:13:29.238Z,20.90
2019-05-15T13:16:00.786Z,20.80
2019-05-15T13:18:29.437Z,22.50
2019-05-15T13:20:59.606Z,23.40
2019-05-15T13:23:28.760Z,23.40
2019-05-15T13:25:59.243Z,22.70
2019-05-15T13:28:29.093Z,21.80
2019-05-15T13:30:59.644Z,21.70
2019-05-15T13:33:31.086Z,21.60
2019-05-15T13:35:59.652Z,21.60
2019-05-15T13:38:28.880Z,20.90
2019-05-15T13:40:58.993Z,20.30
2019-05-15T13:43:29.043Z,20.10
2019-05-15T13:46:01.121Z,19.70
2019-05-15T13:48:29.815Z,19.70
2019-05-15T13:50:59.216Z,20.30
2019-05-15T13:53:28.036Z,21.10
2019-05-15T13:55:56.637Z,22.20
2019-05-15T13:58:25.362Z,22.10
2019-05-15T14:00:58.964Z,21.50
2019-05-15T14:03:28.536Z,21.30
2019-05-15T14:05:58.334Z,21.20
2019-05-15T14:08:28.861Z,20.80
2019-05-15T14:10:58.344Z,20.90
2019-05-15T14:13:28.636Z,20.60
2019-05-15T14:15:58.406Z,21.10
2019-05-15T14:18:28.606Z,22.80
2019-05-15T14:20:58.471Z,23.70
2019-05-15T14:23:33.082Z,24.00
2019-05-15T14:26:15.131Z,24.30
2019-05-15T14:28:32.031Z,24.50
2019-05-15T14:31:00.735Z,24.00
2019-05-15T14:33:29.469Z,24.90
2019-05-15T14:35:59.596Z,25.20
2019-05-15T14:38:29.025Z,23.80
2019-05-15T14:40:59.049Z,23.90
2019-05-15T14:43:29.352Z,24.10
2019-05-15T14:45:58.773Z,23.30
2019-05-15T14:48:30.118Z,22.00
2019-05-15T14:50:58.671Z,20.60
2019-05-15T14:53:29.397Z,20.30
2019-05-15T14:56:00.362Z,20.50
2019-05-15T14:58:28.289Z,21.50
2019-05-15T15:01:02.334Z,21.80
2019-05-15T15:03:28.953Z,21.80
2019-05-15T15:05:58.353Z,21.80
2019-05-15T15:08:29.236Z,21.50
2019-05-15T15:10:59.487Z,21.30
2019-05-15T15:13:28.871Z,20.90
2019-05-15T15:15:59.136Z,20.90
2019-05-15T15:18:28.260Z,20.50
2019-05-15T15:20:58.035Z,20.10
2019-05-15T15:23:28.344Z,19.60
2019-05-15T15:25:57.795Z,19.00
2019-05-15T15:28:26.660Z,18.80
2019-05-15T15:30:55.175Z,18.40
2019-05-15T15:33:23.769Z,18.30
2019-05-15T15:35:52.373Z,18.60
2019-05-15T15:38:35.322Z,18.50
2019-05-15T15:40:51.428Z,18.70
2019-05-15T15:43:20.269Z,18.70
2019-05-15T15:45:51.891Z,18.30
2019-05-15T15:48:20.528Z,18.30
2019-05-15T15:50:49.213Z,18.40
2019-05-15T15:53:19.083Z,18.50
2019-05-15T15:55:48.901Z,19.30
2019-05-15T15:58:19.968Z,19.60
2019-05-15T16:00:49.035Z,20.20
2019-05-15T16:03:19.417Z,20.30
2019-05-15T16:05:49.882Z,21.20
2019-05-15T16:08:19.046Z,21.20
2019-05-15T16:10:48.356Z,21.40
2019-05-15T16:13:18.750Z,21.50
2019-05-15T16:15:48.750Z,21.20
2019-05-15T16:18:18.286Z,22.20
2019-05-15T16:20:48.545Z,23.20
2019-05-15T16:23:18.807Z,24.00
2019-05-15T16:25:48.970Z,24.30
2019-05-15T16:28:18.475Z,24.10
2019-05-15T16:30:51.301Z,24.00
2019-05-15T16:33:18.417Z,21.80
2019-05-15T16:35:48.809Z,21.20
2019-05-15T16:38:19.205Z,21.80
2019-05-15T16:40:48.953Z,22.60
2019-05-15T16:43:17.965Z,22.80
2019-05-15T16:45:49.613Z,22.70
2019-05-15T16:48:18.722Z,23.10
2019-05-15T16:50:48.722Z,22.50
2019-05-15T16:53:18.279Z,22.00
2019-05-15T16:55:48.062Z,22.70
2019-05-15T16:58:19.118Z,23.00
2019-05-15T17:00:49.640Z,22.00
2019-05-15T17:03:18.462Z,22.20
2019-05-15T17:05:48.147Z,22.10
2019-05-15T17:08:17.922Z,22.50
2019-05-15T17:10:48.270Z,22.30
2019-05-15T17:13:17.398Z,23.00
2019-05-15T17:15:47.837Z,22.90
2019-05-15T17:18:18.138Z,23.40
2019-05-15T17:20:48.490Z,23.30
2019-05-15T17:23:18.888Z,23.80
2019-05-15T17:25:48.913Z,23.60
2019-05-15T17:28:18.548Z,23.00
2019-05-15T17:30:48.823Z,22.50
2019-05-15T17:33:18.571Z,21.80
2019-05-15T17:35:48.729Z,20.80
2019-05-15T17:38:18.481Z,19.60
2019-05-15T17:40:48.471Z,19.10
2019-05-15T17:43:19.279Z,19.00
2019-05-15T17:45:48.278Z,18.90
2019-05-15T17:50:51.781Z,18.40
2019-05-15T17:53:18.381Z,18.20
2019-05-15T17:55:47.953Z,18.20
2019-05-15T17:58:16.969Z,18.80
2019-05-15T18:00:45.764Z,19.20
2019-05-15T18:03:14.354Z,19.30
2019-05-15T18:05:43.061Z,19.50
2019-05-15T18:08:11.676Z,19.20
2019-05-15T18:10:59.654Z,19.10
2019-05-15T18:13:28.800Z,18.70
2019-05-15T18:16:03.329Z,18.60
2019-05-15T18:18:28.029Z,18.40
2019-05-15T18:20:58.105Z,18.10
2019-05-15T18:23:27.058Z,17.80
2019-05-15T18:25:58.474Z,17.50
2019-05-15T18:28:27.276Z,17.20
2019-05-15T18:30:58.547Z,17.00
2019-05-15T18:33:28.022Z,16.90
2019-05-15T18:35:58.111Z,16.70
2019-05-15T18:38:28.188Z,16.70
2019-05-15T18:40:58.234Z,16.70
2019-05-15T18:43:28.437Z,16.30
2019-05-15T18:45:58.449Z,16.30
2019-05-15T18:48:28.828Z,16.30
2019-05-15T18:50:58.806Z,15.90
2019-05-15T18:53:28.348Z,15.80
2019-05-15T18:55:58.443Z,15.80
2019-05-15T18:58:31.530Z,15.50
2019-05-15T19:01:01.914Z,15.30
2019-05-15T19:03:31.163Z,15.20
2019-05-15T19:05:59.756Z,15.00
2019-05-15T19:08:28.568Z,14.90
2019-05-15T19:10:58.562Z,14.90
2019-05-15T19:13:29.127Z,14.60
2019-05-15T19:15:58.059Z,14.60
2019-05-15T19:18:27.924Z,14.40
2019-05-15T19:21:00.028Z,14.40
2019-05-15T19:23:31.558Z,14.30
2019-05-15T19:26:00.378Z,14.20
2019-05-15T19:28:29.104Z,13.90
2019-05-15T19:30:58.572Z,13.70
2019-05-15T19:33:37.081Z,13.70
2019-05-15T19:35:57.855Z,13.60
2019-05-15T19:38:27.967Z,13.50
2019-05-15T19:41:02.334Z,13.40
2019-05-15T19:43:28.564Z,13.30
2019-05-15T19:45:58.480Z,13.30
2019-05-15T19:48:27.175Z,13.10
2019-05-15T19:50:58.141Z,12.90
2019-05-15T19:53:28.326Z,12.60
2019-05-15T19:56:02.104Z,12.50
2019-05-15T19:58:31.410Z,12.40
2019-05-15T20:00:59.986Z,12.30
2019-05-15T20:03:28.562Z,12.30
2019-05-15T20:05:57.701Z,12.00
2019-05-15T20:08:27.873Z,12.00
2019-05-15T20:10:59.117Z,12.00
2019-05-15T20:13:28.950Z,11.90
2019-05-15T20:15:58.017Z,11.80
2019-05-15T20:18:27.844Z,11.70
2019-05-15T20:20:58.481Z,11.60
2019-05-15T20:23:28.866Z,11.60
2019-05-15T20:25:57.921Z,11.40
2019-05-15T20:28:28.645Z,11.40
2019-05-15T20:30:58.748Z,11.30
2019-05-15T20:33:28.546Z,11.10
2019-05-15T20:35:58.885Z,11.10
2019-05-15T20:38:28.603Z,10.80
2019-05-15T20:40:59.685Z,10.60
2019-05-15T20:43:27.780Z,10.40
2019-05-15T20:45:57.726Z,10.30
2019-05-15T20:48:28.723Z,10.20
2019-05-15T20:50:58.945Z,10.20
2019-05-15T20:53:28.678Z,10.30
2019-05-15T20:55:58.856Z,10.20
2019-05-15T20:58:28.425Z,10.20
2019-05-15T21:00:59.136Z,10.20
2019-05-15T21:03:27.301Z,10.30
2019-05-15T21:05:57.787Z,10.10
2019-05-15T21:08:28.748Z,10.00
2019-05-15T21:10:58.542Z,9.90
2019-05-15T21:13:27.811Z,9.80
2019-05-15T21:15:58.936Z,9.70
2019-05-15T21:18:28.941Z,9.60
2019-05-15T21:20:59.036Z,9.50
2019-05-15T21:23:28.499Z,9.50
2019-05-15T21:25:59.031Z,9.20
2019-05-15T21:28:27.798Z,9.00
2019-05-15T21:30:58.285Z,9.00
2019-05-15T21:33:27.013Z,8.90
2019-05-15T21:35:55.582Z,8.90
2019-05-15T21:38:24.149Z,8.90
2019-05-15T21:40:52.810Z,8.90
2019-05-15T21:43:21.398Z,8.90
2019-05-15T21:45:50.037Z,9.00
2019-05-15T21:48:18.802Z,8.90
2019-05-15T21:50:48.322Z,8.80
2019-05-15T21:53:17.623Z,8.70
2019-05-15T21:55:47.741Z,8.70
2019-05-15T21:58:18.620Z,8.60
2019-05-15T22:00:50.736Z,8.60
2019-05-15T22:03:19.811Z,8.70
2019-05-15T22:05:48.958Z,8.70
2019-05-15T22:08:18.406Z,8.80
2019-05-15T22:10:48.206Z,8.80
2019-05-15T22:13:17.035Z,8.90
2019-05-15T22:15:47.942Z,8.90
2019-05-15T22:18:18.624Z,9.00
2019-05-15T22:20:48.086Z,9.10
2019-05-15T22:23:18.483Z,9.20
2019-05-15T22:25:51.417Z,9.20
2019-05-15T22:28:18.457Z,9.20
2019-05-15T22:30:47.958Z,9.30
2019-05-15T22:33:17.914Z,9.30
2019-05-15T22:35:48.831Z,9.20
2019-05-15T22:38:18.058Z,9.20
2019-05-15T22:40:48.596Z,9.10
2019-05-15T22:43:18.571Z,9.10
2019-05-15T22:45:48.278Z,8.90
2019-05-15T22:48:18.242Z,8.80
2019-05-15T22:50:47.868Z,8.80
2019-05-15T22:53:17.763Z,8.80
2019-05-15T22:55:48.438Z,8.90
2019-05-15T22:58:16.683Z,9.00
2019-05-15T23:00:45.306Z,9.10
2019-05-15T23:03:13.861Z,9.20
2019-05-15T23:05:42.459Z,9.30
2019-05-15T23:08:11.107Z,9.40
2019-05-15T23:10:39.810Z,9.40
2019-05-15T23:13:08.441Z,9.30
2019-05-15T23:15:38.571Z,9.30
2019-05-15T23:18:08.594Z,9.20
2019-05-15T23:20:38.831Z,9.10
2019-05-15T23:23:08.747Z,9.00
2019-05-15T23:25:38.094Z,9.00
2019-05-15T23:28:08.538Z,9.00
2019-05-15T23:30:37.133Z,9.00
2019-05-15T23:33:08.375Z,9.00
2019-05-15T23:35:38.988Z,9.00
2019-05-15T23:38:08.290Z,9.00
2019-05-15T23:40:36.526Z,9.10
2019-05-15T23:43:08.684Z,9.00
2019-05-15T23:45:36.132Z,9.00
2019-05-15T23:48:04.747Z,9.10
2019-05-15T23:50:33.434Z,8.90
2019-05-15T23:53:02.192Z,8.90
2019-05-15T23:55:30.778Z,9.00
2019-05-15T23:57:59.411Z,9.00
